createdAt,value
2022-11-21T00:00:30.820Z,16.98
2022-11-21T00:03:01.523Z,16.80
2022-11-21T00:05:29.371Z,17.90
2022-11-21T00:07:56.671Z,18.42
2022-11-21T00:10:23.907Z,16.88
2022-11-21T00:12:57.456Z,19.10
2022-11-21T00:15:26.292Z,17.65
2022-11-21T00:17:53.154Z,17.23
2022-11-21T00:20:21.206Z,17.00
2022-11-21T00:22:48.392Z,16.42
2022-11-21T00:25:15.439Z,17.02
2022-11-21T00:27:41.944Z,16.55
2022-11-21T00:30:13.832Z,15.35
2022-11-21T00:32:40.300Z,16.75
2022-11-21T00:35:07.442Z,16.40
2022-11-21T00:37:34.740Z,17.75
2022-11-21T00:40:01.286Z,18.15
2022-11-21T00:42:27.783Z,17.90
2022-11-21T00:44:54.209Z,16.38
2022-11-21T00:47:20.692Z,18.13
2022-11-21T00:49:47.153Z,18.05
2022-11-21T00:52:13.835Z,16.77
2022-11-21T00:54:40.304Z,18.13
2022-11-21T00:57:06.810Z,18.70
2022-11-21T00:59:33.571Z,17.02
2022-11-21T01:02:00.008Z,16.65
2022-11-21T01:04:26.861Z,17.88
2022-11-21T01:06:54.051Z,17.52
2022-11-21T01:09:20.521Z,18.45
2022-11-21T01:11:46.994Z,14.80
2022-11-21T01:14:13.539Z,16.65
2022-11-21T01:16:39.995Z,17.77
2022-11-21T01:19:06.544Z,17.40
2022-11-21T01:21:33.101Z,18.20
2022-11-21T01:24:01.033Z,17.20
2022-11-21T01:26:28.795Z,15.90
2022-11-21T01:28:55.304Z,15.25
2022-11-21T01:31:24.590Z,16.80
2022-11-21T01:33:51.404Z,16.20
2022-11-21T01:36:24.771Z,16.73
2022-11-21T01:38:53.178Z,15.95
2022-11-21T01:41:22.612Z,15.95
2022-11-21T01:43:50.161Z,16.73
2022-11-21T01:46:19.686Z,16.65
2022-11-21T01:48:58.582Z,16.23
2022-11-21T01:51:38.377Z,16.98
2022-11-21T01:54:20.125Z,16.60
2022-11-21T01:56:55.436Z,16.55
2022-11-21T01:59:29.616Z,17.00
2022-11-21T02:01:59.439Z,17.02
2022-11-21T02:04:30.501Z,16.52
2022-11-21T02:06:58.408Z,17.15
2022-11-21T02:09:25.511Z,16.33
2022-11-21T02:11:58.369Z,17.92
2022-11-21T02:14:26.329Z,16.40
2022-11-21T02:16:56.317Z,15.38
2022-11-21T02:19:33.860Z,16.92
2022-11-21T02:22:12.738Z,17.10
2022-11-21T02:25:00.725Z,16.75
2022-11-21T02:27:28.096Z,17.30
2022-11-21T02:29:54.959Z,17.33
2022-11-21T02:32:23.417Z,17.30
2022-11-21T02:34:49.948Z,15.75
2022-11-21T02:37:17.970Z,18.58
2022-11-21T02:39:47.546Z,18.50
2022-11-21T02:42:24.131Z,16.92
2022-11-21T02:45:05.767Z,15.57
2022-11-21T02:47:34.045Z,17.45
2022-11-21T02:50:07.430Z,16.75
2022-11-21T02:52:33.984Z,18.60
2022-11-21T02:55:00.380Z,17.38
2022-11-21T02:57:26.806Z,19.33
2022-11-21T02:59:53.236Z,18.92
2022-11-21T03:02:19.655Z,18.38
2022-11-21T03:04:46.099Z,17.75
2022-11-21T03:07:12.656Z,18.33
2022-11-21T03:09:39.143Z,19.10
2022-11-21T03:12:07.260Z,19.73
2022-11-21T03:14:34.989Z,19.15
2022-11-21T03:17:02.050Z,18.00
2022-11-21T03:19:28.522Z,18.40
2022-11-21T03:21:55.330Z,16.88
2022-11-21T03:24:22.232Z,17.80
2022-11-21T03:26:48.698Z,17.02
2022-11-21T03:29:15.122Z,17.77
2022-11-21T03:31:41.609Z,16.65
2022-11-21T03:34:08.888Z,18.00
2022-11-21T03:36:35.294Z,17.92
2022-11-21T03:39:01.895Z,17.65
2022-11-21T03:41:31.048Z,18.25
2022-11-21T03:44:05.695Z,17.40
2022-11-21T03:46:34.339Z,19.10
2022-11-21T03:49:00.850Z,17.58
2022-11-21T03:51:28.012Z,19.02
2022-11-21T03:53:54.585Z,17.35
2022-11-21T03:56:21.262Z,16.63
2022-11-21T03:58:47.917Z,17.52
2022-11-21T04:01:15.171Z,17.77
2022-11-21T04:03:45.282Z,17.13
2022-11-21T04:06:14.089Z,18.65
2022-11-21T04:08:40.911Z,17.55
2022-11-21T04:11:08.183Z,19.75
2022-11-21T04:13:35.055Z,19.15
2022-11-21T04:16:02.209Z,17.95
2022-11-21T04:18:28.628Z,19.92
2022-11-21T04:20:59.747Z,18.10
2022-11-21T04:23:26.723Z,17.88
2022-11-21T04:25:53.595Z,17.95
2022-11-21T04:28:20.422Z,17.98
2022-11-21T04:30:46.922Z,17.45
2022-11-21T04:33:15.285Z,19.55
2022-11-21T04:35:43.037Z,19.05
2022-11-21T04:38:09.767Z,20.65
2022-11-21T04:40:36.889Z,18.52
2022-11-21T04:43:04.055Z,19.65
2022-11-21T04:45:30.980Z,19.58
2022-11-21T04:47:57.719Z,19.58
2022-11-21T04:50:24.486Z,17.65
2022-11-21T04:52:55.778Z,20.35
2022-11-21T04:55:24.805Z,21.67
2022-11-21T04:57:51.598Z,20.63
2022-11-21T05:00:23.967Z,21.48
2022-11-21T05:02:51.083Z,23.15
2022-11-21T05:05:17.654Z,21.73
2022-11-21T05:07:44.162Z,21.73
2022-11-21T05:10:10.707Z,22.67
2022-11-21T05:12:57.410Z,22.08
2022-11-21T05:15:25.088Z,23.67
2022-11-21T05:17:52.073Z,20.73
2022-11-21T05:20:19.026Z,22.58
2022-11-21T05:22:49.899Z,21.42
2022-11-21T05:25:16.620Z,23.40
2022-11-21T05:27:43.225Z,22.73
2022-11-21T05:30:10.963Z,25.23
2022-11-21T05:32:37.923Z,21.95
2022-11-21T05:35:04.624Z,23.13
2022-11-21T05:37:31.042Z,21.73
2022-11-21T05:39:57.553Z,21.25
2022-11-21T05:42:44.007Z,20.67
2022-11-21T05:45:10.757Z,20.52
2022-11-21T05:47:37.317Z,20.73
2022-11-21T05:50:04.181Z,21.35
2022-11-21T05:52:30.632Z,23.23
2022-11-21T05:54:57.055Z,21.77
2022-11-21T05:57:23.482Z,22.95
2022-11-21T05:59:49.905Z,22.38
2022-11-21T06:02:35.013Z,23.45
2022-11-21T06:05:01.502Z,22.65
2022-11-21T06:07:27.984Z,22.27
2022-11-21T06:09:54.427Z,21.70
2022-11-21T06:12:25.236Z,23.58
2022-11-21T06:14:52.410Z,23.33
2022-11-21T06:17:18.875Z,22.98
2022-11-21T06:19:45.302Z,24.35
2022-11-21T06:22:11.715Z,24.98
2022-11-21T06:24:38.166Z,25.13
2022-11-21T06:27:04.606Z,24.50
2022-11-21T06:29:31.074Z,25.08
2022-11-21T06:31:57.520Z,25.13
2022-11-21T06:34:26.458Z,24.52
2022-11-21T06:36:53.406Z,26.40
2022-11-21T06:39:19.841Z,25.05
2022-11-21T06:41:51.102Z,24.90
2022-11-21T06:44:18.769Z,22.67
2022-11-21T06:46:50.765Z,23.10
2022-11-21T06:49:17.986Z,26.85
2022-11-21T06:51:44.463Z,23.75
2022-11-21T06:54:15.243Z,25.77
2022-11-21T06:56:43.324Z,27.27
2022-11-21T06:59:09.826Z,28.42
2022-11-21T07:01:36.359Z,25.13
2022-11-21T07:04:02.892Z,25.05
2022-11-21T07:06:29.336Z,24.67
2022-11-21T07:11:42.667Z,24.60
2022-11-21T07:14:09.609Z,27.48
2022-11-21T07:16:36.663Z,25.45
2022-11-21T07:19:03.263Z,27.40
2022-11-21T07:21:29.714Z,26.70
2022-11-21T07:23:56.145Z,25.58
2022-11-21T07:26:22.575Z,26.90
2022-11-21T07:28:49.077Z,26.42
2022-11-21T07:31:15.753Z,28.30
2022-11-21T07:33:46.806Z,25.52
2022-11-21T07:36:13.814Z,24.95
2022-11-21T07:38:41.606Z,25.88
2022-11-21T07:41:08.959Z,26.83
2022-11-21T07:43:35.562Z,25.02
2022-11-21T07:46:02.036Z,26.38
2022-11-21T07:48:28.507Z,26.42
2022-11-21T07:50:54.912Z,27.63
2022-11-21T07:53:21.578Z,25.40
2022-11-21T07:55:48.017Z,28.00
2022-11-21T07:58:16.582Z,25.35
2022-11-21T08:00:43.341Z,28.10
2022-11-21T08:03:12.177Z,25.95
2022-11-21T08:05:43.402Z,27.85
2022-11-21T08:08:14.126Z,27.90
2022-11-21T08:10:45.345Z,27.95
2022-11-21T08:13:12.885Z,27.05
2022-11-21T08:15:40.174Z,26.02
2022-11-21T08:18:10.706Z,27.02
2022-11-21T08:20:37.190Z,25.10
2022-11-21T08:23:04.050Z,24.58
2022-11-21T08:25:30.501Z,24.80
2022-11-21T08:27:58.433Z,27.02
2022-11-21T08:30:25.413Z,27.23
2022-11-21T08:32:52.000Z,27.08
2022-11-21T08:35:19.100Z,25.73
2022-11-21T08:37:45.570Z,27.65
2022-11-21T08:40:12.022Z,26.58
2022-11-21T08:42:38.577Z,27.33
2022-11-21T08:45:05.795Z,26.55
2022-11-21T08:47:35.388Z,26.85
2022-11-21T08:50:07.419Z,24.50
2022-11-21T08:52:35.435Z,24.17
2022-11-21T08:55:01.857Z,27.20
2022-11-21T08:57:28.314Z,23.98
2022-11-21T08:59:54.800Z,23.15
2022-11-21T09:02:21.250Z,24.95
2022-11-21T09:04:47.761Z,27.42
2022-11-21T09:07:14.360Z,25.30
2022-11-21T09:09:40.864Z,27.42
2022-11-21T09:12:07.426Z,23.65
2022-11-21T09:14:52.197Z,25.92
2022-11-21T09:17:37.147Z,25.30
2022-11-21T09:20:03.993Z,27.77
2022-11-21T09:22:30.448Z,26.02
2022-11-21T09:24:56.921Z,25.58
2022-11-21T09:27:23.402Z,27.83
2022-11-21T09:29:54.095Z,28.25
2022-11-21T09:32:21.129Z,25.58
2022-11-21T09:34:47.687Z,27.48
2022-11-21T09:37:14.199Z,25.33
2022-11-21T09:39:40.696Z,24.20
2022-11-21T09:42:28.562Z,23.00
2022-11-21T09:45:05.127Z,24.90
2022-11-21T09:47:31.510Z,23.00
2022-11-21T09:50:07.416Z,23.77
2022-11-21T09:53:11.806Z,26.17
2022-11-21T09:55:52.833Z,28.08
2022-11-21T09:58:28.088Z,24.00
2022-11-21T10:03:39.805Z,25.08
2022-11-21T10:06:18.800Z,24.65
2022-11-21T10:09:04.008Z,25.02
2022-11-21T10:11:59.351Z,20.60
2022-11-21T10:14:53.118Z,27.85
2022-11-21T10:18:04.456Z,28.33
2022-11-21T10:20:55.801Z,26.15
2022-11-21T10:23:41.075Z,28.08
2022-11-21T10:26:15.098Z,29.55
2022-11-21T10:28:50.117Z,25.00
2022-11-21T10:31:18.106Z,28.10
2022-11-21T10:33:45.554Z,26.35
2022-11-21T10:36:11.972Z,27.98
2022-11-21T10:38:41.252Z,28.92
2022-11-21T10:41:19.666Z,28.85
2022-11-21T10:44:15.412Z,29.13
2022-11-21T10:46:55.003Z,29.67
2022-11-21T10:49:21.648Z,27.38
2022-11-21T10:52:07.936Z,28.67
2022-11-21T10:55:05.155Z,30.73
2022-11-21T10:57:36.962Z,29.77
2022-11-21T11:00:12.568Z,30.50
2022-11-21T11:03:00.266Z,30.30
2022-11-21T11:05:28.461Z,32.70
2022-11-21T11:08:01.421Z,29.70
2022-11-21T11:10:28.989Z,29.98
2022-11-21T11:13:44.501Z,28.95
2022-11-21T11:16:04.541Z,28.65
2022-11-21T11:18:34.675Z,30.67
2022-11-21T11:21:23.550Z,30.67
2022-11-21T11:23:52.040Z,36.60
2022-11-21T11:26:30.497Z,29.40
2022-11-21T11:29:13.326Z,28.45
2022-11-21T11:31:52.733Z,27.58
2022-11-21T11:34:19.488Z,30.95
2022-11-21T11:36:56.247Z,29.80
2022-11-21T11:39:39.837Z,28.25
2022-11-21T11:42:43.165Z,26.42
2022-11-21T11:45:42.669Z,27.85
2022-11-21T11:48:13.172Z,26.83
2022-11-21T11:50:50.095Z,26.75
2022-11-21T11:53:34.907Z,27.15
2022-11-21T11:56:08.708Z,26.17
2022-11-21T11:59:00.886Z,28.50
2022-11-21T12:01:35.667Z,29.80
2022-11-21T12:04:15.729Z,27.52
2022-11-21T12:08:20.010Z,25.45
2022-11-21T12:09:56.173Z,24.80
2022-11-21T12:12:25.545Z,25.80
2022-11-21T12:15:22.920Z,24.67
2022-11-21T12:18:20.790Z,26.05
2022-11-21T12:20:50.280Z,25.83
2022-11-21T12:23:18.100Z,23.20
2022-11-21T12:25:52.907Z,23.55
2022-11-21T12:28:31.658Z,24.15
2022-11-21T12:31:18.566Z,23.10
2022-11-21T12:34:10.008Z,20.85
2022-11-21T12:37:03.782Z,21.27
2022-11-21T12:39:49.111Z,20.83
2022-11-21T12:42:51.578Z,19.02
2022-11-21T12:45:37.793Z,17.20
2022-11-21T12:49:04.091Z,18.30
2022-11-21T12:52:14.158Z,18.45
2022-11-21T12:54:57.533Z,15.02
2022-11-21T12:57:57.554Z,16.67
2022-11-21T13:00:57.439Z,16.00
2022-11-21T13:04:15.608Z,16.63
2022-11-21T13:06:44.574Z,15.10
2022-11-21T13:09:17.741Z,14.38
2022-11-21T13:11:59.992Z,14.77
2022-11-21T13:14:40.608Z,15.35
2022-11-21T13:17:49.572Z,14.88
2022-11-21T13:20:28.121Z,14.07
2022-11-21T13:22:59.494Z,14.20
2022-11-21T13:25:31.911Z,14.48
2022-11-21T13:28:13.135Z,14.02
2022-11-21T13:30:49.686Z,13.90
2022-11-21T13:33:34.436Z,12.98
2022-11-21T13:36:03.860Z,13.48
2022-11-21T13:38:30.389Z,10.30
2022-11-21T13:41:15.110Z,13.65
2022-11-21T13:43:41.670Z,10.82
2022-11-21T13:46:08.230Z,11.15
2022-11-21T13:49:02.066Z,10.77
2022-11-21T13:51:47.882Z,10.30
2022-11-21T13:54:29.286Z,9.43
2022-11-21T13:57:16.173Z,9.63
2022-11-21T13:59:51.846Z,10.93
2022-11-21T14:02:33.673Z,9.60
2022-11-21T14:05:24.691Z,10.88
2022-11-21T14:07:51.443Z,10.85
2022-11-21T14:10:25.881Z,11.35
2022-11-21T14:12:55.420Z,10.43
2022-11-21T14:15:31.120Z,11.68
2022-11-21T14:17:59.198Z,11.77
2022-11-21T14:20:28.757Z,12.75
2022-11-21T14:22:58.284Z,13.80
2022-11-21T14:25:31.607Z,13.77
2022-11-21T14:27:58.832Z,13.75
2022-11-21T14:30:31.086Z,11.88
2022-11-21T14:33:14.393Z,12.40
2022-11-21T14:35:40.961Z,13.48
2022-11-21T14:38:07.473Z,14.05
2022-11-21T14:40:34.000Z,14.15
2022-11-21T14:43:01.182Z,12.50
2022-11-21T14:45:27.608Z,11.48
2022-11-21T14:47:54.518Z,12.45
2022-11-21T14:50:33.494Z,11.65
2022-11-21T14:53:01.892Z,12.27
2022-11-21T14:55:31.648Z,13.23
2022-11-21T14:58:01.416Z,11.73
2022-11-21T15:00:58.151Z,10.57
2022-11-21T15:03:24.000Z,10.38
2022-11-21T15:06:05.792Z,12.18
2022-11-21T15:09:33.426Z,11.82
2022-11-21T15:12:07.838Z,12.95
2022-11-21T15:14:48.522Z,13.25
2022-11-21T15:17:20.447Z,12.98
2022-11-21T15:19:47.317Z,14.25
2022-11-21T15:22:26.254Z,15.38
2022-11-21T15:25:06.914Z,13.52
2022-11-21T15:27:34.096Z,14.50
2022-11-21T15:30:24.982Z,13.65
2022-11-21T15:33:10.107Z,14.13
2022-11-21T15:35:39.573Z,13.05
2022-11-21T15:38:24.329Z,13.25
2022-11-21T15:41:04.849Z,11.10
2022-11-21T15:43:44.841Z,11.10
2022-11-21T15:46:26.235Z,12.45
2022-11-21T15:48:57.669Z,13.43
2022-11-21T15:51:51.199Z,12.15
2022-11-21T15:54:22.464Z,12.13
2022-11-21T15:56:49.171Z,12.85
2022-11-21T15:59:15.876Z,13.52
2022-11-21T16:01:42.853Z,15.13
2022-11-21T16:04:13.347Z,15.55
2022-11-21T16:06:39.884Z,15.57
2022-11-21T16:09:06.384Z,14.13
2022-11-21T16:11:36.780Z,15.70
2022-11-21T16:14:05.553Z,14.88
2022-11-21T16:16:37.281Z,14.40
2022-11-21T16:19:06.676Z,13.90
2022-11-21T16:21:33.230Z,16.67
2022-11-21T16:23:59.708Z,18.08
2022-11-21T16:26:28.689Z,21.08
2022-11-21T16:28:56.027Z,17.75
2022-11-21T16:31:25.312Z,15.85
2022-11-21T16:33:52.016Z,14.93
2022-11-21T16:36:23.625Z,15.98
2022-11-21T16:38:50.342Z,15.43
2022-11-21T16:41:19.372Z,13.70
2022-11-21T16:43:49.589Z,12.90
2022-11-21T16:46:16.926Z,14.57
2022-11-21T16:48:43.715Z,17.40
2022-11-21T16:51:20.229Z,15.95
2022-11-21T16:53:49.081Z,18.88
2022-11-21T16:56:16.306Z,18.92
2022-11-21T16:58:42.986Z,18.23
2022-11-21T17:01:18.154Z,18.70
2022-11-21T17:06:13.698Z,15.70
2022-11-21T17:08:40.692Z,17.48
2022-11-21T17:11:16.212Z,17.52
2022-11-21T17:13:44.702Z,17.48
2022-11-21T17:16:12.476Z,17.02
2022-11-21T17:18:39.723Z,15.38
2022-11-21T17:21:12.149Z,13.23
2022-11-21T17:23:41.769Z,13.00
2022-11-21T17:26:10.876Z,12.02
2022-11-21T17:28:41.008Z,11.50
2022-11-21T17:31:15.919Z,12.80
2022-11-21T17:33:43.520Z,12.68
2022-11-21T17:36:14.499Z,14.85
2022-11-21T17:38:42.471Z,15.23
2022-11-21T17:41:12.048Z,16.67
2022-11-21T17:43:38.829Z,11.90
2022-11-21T17:46:09.966Z,11.50
2022-11-21T17:48:37.798Z,12.35
2022-11-21T17:51:12.909Z,12.63
2022-11-21T17:53:44.581Z,13.45
2022-11-21T17:56:14.105Z,11.57
2022-11-21T17:58:41.031Z,10.95
2022-11-21T18:01:10.512Z,11.68
2022-11-21T18:03:37.212Z,10.65
2022-11-21T18:06:09.208Z,11.88
2022-11-21T18:08:37.764Z,10.55
2022-11-21T18:11:06.165Z,11.13
2022-11-21T18:13:33.632Z,10.27
2022-11-21T18:16:01.868Z,12.45
2022-11-21T18:18:28.691Z,10.80
2022-11-21T18:20:55.140Z,9.23
2022-11-21T18:23:21.641Z,10.65
2022-11-21T18:25:48.136Z,12.68
2022-11-21T18:28:14.604Z,11.90
2022-11-21T18:30:41.159Z,12.57
2022-11-21T18:33:07.681Z,14.07
2022-11-21T18:35:34.139Z,13.38
2022-11-21T18:38:00.642Z,14.40
2022-11-21T18:40:27.169Z,15.27
2022-11-21T18:42:53.687Z,17.38
2022-11-21T18:45:20.443Z,15.13
2022-11-21T18:47:47.820Z,16.60
2022-11-21T18:50:15.708Z,16.70
2022-11-21T18:52:46.432Z,14.57
2022-11-21T18:55:13.402Z,13.38
2022-11-21T18:57:39.893Z,11.88
2022-11-21T19:00:07.357Z,15.82
2022-11-21T19:02:34.070Z,15.68
2022-11-21T19:05:00.535Z,15.18
2022-11-21T19:07:27.134Z,13.00
2022-11-21T19:09:53.651Z,12.70
2022-11-21T19:12:20.163Z,10.55
2022-11-21T19:14:46.662Z,11.52
2022-11-21T19:17:13.108Z,11.60
2022-11-21T19:19:39.607Z,12.77
2022-11-21T19:22:06.346Z,14.23
2022-11-21T19:24:33.425Z,17.05
2022-11-21T19:26:59.974Z,18.00
2022-11-21T19:29:26.913Z,15.27
2022-11-21T19:31:53.602Z,13.05
2022-11-21T19:34:20.144Z,13.43
2022-11-21T19:36:46.654Z,14.57
2022-11-21T19:39:13.588Z,13.13
2022-11-21T19:41:40.363Z,15.32
2022-11-21T19:44:07.000Z,14.50
2022-11-21T19:46:36.752Z,13.85
2022-11-21T19:49:04.249Z,12.65
2022-11-21T19:51:33.561Z,13.82
2022-11-21T19:54:02.629Z,11.05
2022-11-21T19:56:29.225Z,11.25
2022-11-21T19:58:56.902Z,10.65
2022-11-21T20:01:26.002Z,9.75
2022-11-21T20:03:55.654Z,9.65
2022-11-21T20:06:33.748Z,9.68
2022-11-21T20:09:05.617Z,9.23
2022-11-21T20:11:33.102Z,9.07
2022-11-21T20:13:59.724Z,9.50
2022-11-21T20:16:27.336Z,9.73
2022-11-21T20:18:57.961Z,8.48
2022-11-21T20:21:24.816Z,8.63
2022-11-21T20:23:51.763Z,8.75
2022-11-21T20:26:20.507Z,7.25
2022-11-21T20:28:47.594Z,8.13
2022-11-21T20:31:17.113Z,7.32
2022-11-21T20:33:45.778Z,7.03
2022-11-21T20:36:17.284Z,5.93
2022-11-21T20:38:49.052Z,7.57
2022-11-21T20:41:15.627Z,6.53
2022-11-21T20:44:25.168Z,5.43
2022-11-21T20:46:29.460Z,5.45
2022-11-21T20:48:56.707Z,6.60
2022-11-21T20:54:10.434Z,5.53
2022-11-21T20:56:38.680Z,5.20
2022-11-21T20:59:07.829Z,5.90
2022-11-21T21:01:34.447Z,5.68
2022-11-21T21:04:00.881Z,6.22
2022-11-21T21:06:27.388Z,5.10
2022-11-21T21:08:53.856Z,5.20
2022-11-21T21:11:50.463Z,5.32
2022-11-21T21:14:09.664Z,5.65
2022-11-21T21:16:36.312Z,5.55
2022-11-21T21:19:02.854Z,5.25
2022-11-21T21:21:33.010Z,5.10
2022-11-21T21:24:05.629Z,4.93
2022-11-21T21:26:43.859Z,5.35
2022-11-21T21:29:12.578Z,5.65
2022-11-21T21:31:40.230Z,5.10
2022-11-21T21:34:10.077Z,4.60
2022-11-21T21:36:36.752Z,5.10
2022-11-21T21:39:03.966Z,5.03
2022-11-21T21:41:31.301Z,4.38
2022-11-21T21:43:58.145Z,5.00
2022-11-21T21:46:26.677Z,5.20
2022-11-21T21:48:55.892Z,5.88
2022-11-21T21:51:27.841Z,5.20
2022-11-21T21:53:55.904Z,5.70
2022-11-21T21:56:24.545Z,4.63
2022-11-21T21:58:51.372Z,4.75
2022-11-21T22:01:32.217Z,5.25
2022-11-21T22:04:01.191Z,4.65
2022-11-21T22:06:28.312Z,5.97
2022-11-21T22:08:55.867Z,4.45
2022-11-21T22:11:23.630Z,3.67
2022-11-21T22:13:59.381Z,4.25
2022-11-21T22:16:26.277Z,3.33
2022-11-21T22:18:53.221Z,2.17
2022-11-21T22:21:20.895Z,3.40
2022-11-21T22:24:24.372Z,3.70
2022-11-21T22:26:34.485Z,3.28
2022-11-21T22:29:00.911Z,3.03
2022-11-21T22:31:30.134Z,2.97
2022-11-21T22:33:57.232Z,2.85
2022-11-21T22:36:23.676Z,2.40
2022-11-21T22:38:53.962Z,3.28
2022-11-21T22:41:23.026Z,2.83
2022-11-21T22:43:51.324Z,2.85
2022-11-21T22:46:18.037Z,1.95
2022-11-21T22:48:44.577Z,3.33
2022-11-21T22:51:15.118Z,3.00
2022-11-21T22:53:41.601Z,2.60
2022-11-21T22:56:10.621Z,2.35
2022-11-21T22:58:39.473Z,2.10
2022-11-21T23:01:10.412Z,2.70
2022-11-21T23:03:36.888Z,2.80
2022-11-21T23:06:05.899Z,2.25
2022-11-21T23:08:33.468Z,2.40
2022-11-21T23:11:08.371Z,2.63
2022-11-21T23:13:35.972Z,1.42
2022-11-21T23:16:03.928Z,2.13
2022-11-21T23:18:32.995Z,2.50
2022-11-21T23:21:00.410Z,2.40
2022-11-21T23:23:27.637Z,2.55
2022-11-21T23:25:54.277Z,2.85
2022-11-21T23:28:20.820Z,2.38
2022-11-21T23:30:48.987Z,2.60
2022-11-21T23:33:16.149Z,2.55
2022-11-21T23:35:43.666Z,2.38
2022-11-21T23:38:11.063Z,2.40
2022-11-21T23:40:37.618Z,1.75
2022-11-21T23:43:04.067Z,2.53
2022-11-21T23:45:30.686Z,1.60
2022-11-21T23:47:57.389Z,2.38
2022-11-21T23:50:23.887Z,2.13
2022-11-21T23:52:50.485Z,2.15
2022-11-21T23:55:17.137Z,2.03
2022-11-21T23:57:48.454Z,1.90
